x

East Bahamas - 335 Nm East Of San Salvador Is, Bahamas (41046) Wave Buoy

5:50am - Sun 26th Apr 2015 All times are UTC.

  • Sig Wave height 3.3ft
  • Swell Direction
  • Peak Period 7s
  • Average Period 7s
  • Wind
    7mph, 9mph gusts
  • Sea Temp 81°f
  • Air Temp 78°f
  • Sea Pressure 1012.3mb

More Historic Weather Station data

Upgrade to MSW Pro to gain access to the past 30 days of data for over 8000 Wavebouys and Weather Stations around the globe.

Join Pro

Comparision Forecast

View Surf forecast
   
Sun 04/26 5:50am 3.5ft 7s 7s 7 9 mph 1012.3mb 81f 78f
4:50am 3.5ft 11s 7s 4 7 mph 1013.3mb 81f 79f
3:50am 3ft 8s 7s 2 4 mph 1014.2mb 81f 79f
2:50am 3ft 8s 7s 2 4 mph 1014.4mb 81f 79f
1:50am 3.5ft 13s 7s 4 7 mph 1014.6mb 81f 79f
12:50am 3ft 8s 7s 2 4 mph 1014.4mb 81f 79f
Sat 04/25 11:50pm 3.5ft 13s 7s 4
mph
1014.1mb 81f 78f
10:50pm 3.5ft 13s 7s 7 9 mph 1013.5mb 81f 77f
9:50pm 3.5ft 12s 7s 2 4 mph 1013.3mb 81f 77f
8:50pm 3.5ft 13s 7s 4 9 mph 1012.9mb 81f 77f
7:50pm 3.5ft 14s 7s 2 4 mph 1012.8mb 82f 79f
6:50pm 3.5ft 13s 8s 7 9 mph 1013.3mb 81f 79f
5:50pm 3.5ft 14s 7s 9 18 mph 1013.7mb 81f 79f
4:50pm 3.5ft 13s 7s 9 11 mph 1014.4mb 81f 79f
3:50pm 3.5ft 13s 7s 7 9 mph 1015mb 81f 79f
2:50pm 3.5ft 13s 7s 4 7 mph 1015mb 81f 79f
1:50pm 3.5ft 14s 7s 7 9 mph 1015mb 80f 79f
12:50pm 3.5ft 14s 7s 7 9 mph 1014.7mb 80f 79f
11:50am 3.5ft 14s 8s 2 4 mph 1014.2mb 80f 79f
10:50am 3.5ft 14s 8s 4
mph
1014mb 80f 76f
9:50am 3.5ft 14s 7s 4 7 mph 1013.4mb 80f 79f
8:50am 4.5ft 14s 8s 9
mph
1012.7mb 80f 79f
7:50am 4ft 14s 8s 9
mph
1012.5mb 80f 79f
6:50am 4ft 12s 7s 9 11 mph 1012.6mb 80f 79f
5:50am 4ft 14s 7s 9 11 mph 1013.3mb 80f 79f
4:50am 4.5ft 15s 7s 9 11 mph 1013.9mb 80f 79f
3:50am 4.5ft 14s 7s 9 11 mph 1014.5mb 80f 79f
2:50am 4.5ft 14s 7s 9 11 mph 1014.6mb 80f 79f
1:50am 4.5ft 14s 7s 11 13 mph 1014.6mb 80f 80f
12:50am 4.5ft 14s 7s 11 16 mph 1014.2mb 80f 79f
Fri 04/24 11:50pm 4ft 14s 6s 11 13 mph 1013.5mb 80f 79f
10:50pm 5ft 14s 7s 13 16 mph 1013.1mb 81f 79f
9:50pm 4.5ft 14s 7s 11 16 mph 1013.3mb 81f 80f
8:50pm 4.5ft 14s 7s 13 16 mph 1013.1mb 81f 80f
7:50pm 4.5ft 15s 7s 11 13 mph 1013.5mb 81f 79f
6:50pm 5ft 15s 8s 16 18 mph 1013.9mb 81f 78f
5:50pm 5ft 15s 8s 9 11 mph 1014.4mb 81f 78f
4:50pm 5.5ft 15s 9s 13 16 mph 1014.7mb 81f 78f
3:50pm 5.5ft 15s 9s 9 11 mph 1015.2mb 81f 79f
2:50pm 5ft 15s 8s 9 11 mph 1015.3mb 80f 79f
1:50pm 5ft 15s 9s 9 13 mph 1015.1mb 80f 79f
12:50pm 5ft 16s 8s 4 7 mph 1014.8mb 80f 78f
11:50am 4.5ft 12s 8s 2 4 mph 1014.7mb 80f 79f
10:50am 5ft 16s 9s 4
mph
1014.3mb 80f 78f
9:50am 5.5ft 15s 9s 4 7 mph 1013.9mb 80f 78f
8:50am 4.5ft 15s 8s 4 7 mph 1013.4mb 80f 77f
7:50am 6ft 15s 9s 7
mph
1013.2mb 80f 78f
6:50am 5.5ft 16s 9s 4 7 mph 1013.5mb 80f 78f
5:50am 5ft 16s 8s 7 9 mph 1013.9mb 80f 79f
4:50am 5.5ft 14s 9s 4 7 mph 1014.4mb 80f 79f
3:50am 5.5ft 14s 9s 7
mph
1014.8mb 80f 78f
2:50am 5ft 16s 8s 4 7 mph 1015.2mb 80f 78f
1:50am 6ft 15s 9s 9 11 mph 1015.4mb 80f 78f
12:50am 4.5ft 16s 8s 2 4 mph 1015.4mb 80f 77f
Thu 04/23 11:50pm 5.5ft 16s 9s 9 13 mph 1015mb 80f 78f
10:50pm 5ft 16s 8s 9 11 mph 1014.6mb 80f 79f
9:50pm 5.5ft 15s 9s 16 20 mph 1014.3mb 81f 78f
8:50pm 5ft 16s 8s 9 11 mph 1014.3mb 81f 80f
7:50pm 6ft 16s 8s 11 13 mph 1014.1mb 81f 80f
6:50pm 5ft 15s 8s 13 16 mph 1014.8mb 81f 80f
5:50pm 5.5ft 16s 8s 13 16 mph 1015.3mb 80f 79f
4:50pm 6ft 15s 8s 13 16 mph 1015.5mb 80f 79f
3:50pm 5ft 14s 8s 13 18 mph 1016.3mb 80f 79f
2:50pm 5.5ft 14s 8s 13 16 mph 1016.5mb 80f 79f
1:50pm 5ft 15s 8s 11 13 mph 1016.7mb 80f 79f
12:50pm 5ft 15s 8s 9 13 mph 1016.4mb 80f 79f
11:50am 4.5ft 16s 7s 11 13 mph 1015.7mb 80f 79f
10:50am 4.5ft 15s 7s 9
mph
1015.8mb 80f 78f
9:50am 4.5ft 16s 7s 7 9 mph 1014.8mb 80f 78f
8:50am 4ft 8s 7s 9 11 mph 1013.9mb 80f 78f
7:50am 3.5ft 8s 7s 11
mph
1013.9mb 80f 78f
6:50am 3.5ft 8s 6s 9 11 mph 1014mb 80f 78f
5:50am 3.5ft 8s 6s 9 11 mph 1014.8mb 80f 78f
4:50am 3.5ft 8s 6s 9 11 mph 1015.5mb 80f 78f
3:50am 3.5ft 10s 6s 9 11 mph 1016.3mb 80f 79f
2:50am 3.5ft 8s 6s 9
mph
1017mb 80f 79f
1:50am 3.5ft 8s 6s 9 11 mph 1016.7mb 80f 79f
12:50am 3.5ft 8s 6s 7 9 mph 1016.4mb 80f 78f
Wed 04/22 11:50pm 3.5ft 8s 6s 9 11 mph 1016.4mb 80f 79f
10:50pm 3.5ft 8s 6s 9 11 mph 1016.1mb 80f 79f
9:50pm 3.5ft 8s 6s 11
mph
1016mb 80f 80f
8:50pm 3.5ft 8s 6s 11 16 mph 1015.7mb 81f 79f
7:50pm 3.5ft 11s 6s 11 16 mph 1015.1mb 81f 80f
6:50pm 3.5ft 12s 6s 11 13 mph 1015.6mb 81f 79f
5:50pm 3.5ft 10s 6s 13 16 mph 1015.8mb 80f 79f
4:50pm 3.5ft 8s 6s 11 13 mph 1016mb 80f 79f
3:50pm 3.5ft 8s 6s 13 16 mph 1016.4mb 80f 79f
2:50pm 3.5ft 8s 6s 9 11 mph 1017.6mb 80f 79f
1:50pm 3.5ft 8s 6s 11 13 mph 1017.5mb 80f 79f
12:50pm 3.5ft 8s 6s 9 13 mph 1017.1mb 80f 79f
11:50am 3.5ft 8s 6s 9 11 mph 1016.8mb 80f 79f
10:50am 3.5ft 8s 6s 7 9 mph 1016.8mb 80f 78f
9:50am 3.5ft 7s 6s 9 11 mph 1016.2mb 80f 78f
8:50am 3.5ft 8s 6s 7 9 mph 1016.1mb 80f 79f
7:50am 3.5ft 8s 6s 7 9 mph 1015.9mb 80f 78f
6:50am 3.5ft 8s 6s 9 11 mph 1015.5mb 80f 78f